Аэропорт Эдинбург: онлайн табло прилетов и вылетов аэропорта

1 пассажир, эконом
Взрослые 1
Дети до 12 лет 0
Дети до 2 лет 0

Онлайн табло Эдинбургского аэропорта расположено в самом удобном для обзора месте. Терминал всего один, поэтому по прибытию вы увидите всего одно здание. Продуманность которого и множество информационных табличек легко поможет вам сориентироваться в нем, и сможете найти всю информацию об интересующем вам рейсе на дисплее электронного табло. Для удобства вся информация отображена на английском языке, что соответствует информации в вашем посадочном талоне. Часовой пояс в Шотландии +0, поэтому разница с Москвой 3 часа.

До центра города 13 км от терминала, куда вы сможете добраться общественным наземным транспортом или воспользоваться услугами такси. Железная дорога или метро пока не соединяет город и аэропорт, поэтому будьте готовы сразу погрузится в довольно плотный трафик дорог с аэропорта.  Дорога до центра у вас может занять от 1-го до 2-х часов в зависимости времени суток. Стоимость билета на автобус будет порядка 400 рублей, а такси 2500-3000 рублей.

Также вся информация о рейсе находится на официальном сайте, где есть вся необходимая информация на онлайн табло, о прибытии и отбытии самолетов, об их задержках, начале регистрации, номеру стойки и ворот отбытия и прибытия.

Также по прибытию в Шотландию будьте готовы к высокой влажности и невысокой температуре воздуха и частым осадкам в виде дождя.

Рейс Борт Направление Перевозчик Время прибытия
FR 6619 Boeing 737-800 Познань — Эдинбург Ryanair 07:30, 06.12
FR 812 Boeing 737-800 Дублин — Эдинбург Ryanair 07:35, 06.12
BA 1432 Airbus А320 Лондон — Эдинбург British Airways 07:45, 06.12
EI 252 Airbus А320 Дублин — Эдинбург Aer Lingus 07:45, 06.12
BA 8700 Embraer 190 Лондон — Эдинбург British Airways 08:10, 06.12
U2 481 Airbus А320 Белфаст — Эдинбург Easyjet 08:10, 06.12
U2 421 Airbus А320 Бристоль — Эдинбург Easyjet 08:15, 06.12
KL 1277 Embraer 190 Амстердам — Эдинбург KLM 08:35, 06.12
BA 8702 Embraer 190 Лондон — Эдинбург British Airways 09:10, 06.12
LM 301 Embraer RJ145 Норвич — Эдинбург Loganair 09:15, 06.12
U2 231 Airbus А320 Лондон — Эдинбург Easyjet 09:25, 06.12
LM 392 ATR 42/ATR 72 FR/IT Керкуолл — Эдинбург Loganair 09:50, 06.12
U2 803 Airbus A319 Лондон — Эдинбург Easyjet 09:55, 06.12
LM 322 Embraer RJ145 Саутгемптон — Эдинбург Loganair 10:00, 06.12
U2 11 Airbus А320 Лондон — Эдинбург Easyjet 10:05, 06.12
FR 2675 Boeing 737-800 Копенгаген — Эдинбург Ryanair 10:25, 06.12
BA 1442 Airbus A319 Лондон — Эдинбург British Airways 10:35, 06.12
FR 6653 Boeing 737-800 Малага — Эдинбург Ryanair 10:35, 06.12
AF 1686 Airbus А320 Париж — Эдинбург Air France 10:40, 06.12
TK 1343 Airbus А321 Стамбул — Эдинбург Turkish Airlines 10:55, 06.12
LM 352 ATR 42/ATR 72 FR/IT Сумбург — Эдинбург Loganair 10:55, 06.12
FR 2377 Boeing 737-800 Берлин — Эдинбург Ryanair 11:10, 06.12
FR 816 Boeing 737-800 Дублин — Эдинбург Ryanair 11:20, 06.12
U2 483 Airbus A319 Белфаст — Эдинбург Easyjet 11:30, 06.12
U2 502 Airbus А320 Бирмингем — Эдинбург Easyjet 11:40, 06.12
BA 1450 Airbus A319 Лондон — Эдинбург British Airways 11:45, 06.12
U2 423 Airbus А320 Бристоль — Эдинбург Easyjet 11:45, 06.12
LH 962 Airbus A320 Франкфурт-на-Майне — Эдинбург Lufthansa 11:50, 06.12
EI 316 Airbus А320 Белфаст — Эдинбург Aer Lingus 12:10, 06.12
BA 8704 Embraer 190 Лондон — Эдинбург British Airways 12:15, 06.12
FR 5833 Boeing 737-800 Бергамо — Эдинбург Ryanair 12:15, 06.12
D8 3502 Boeing 737-800 Копенгаген — Эдинбург Norwegian 12:20, 06.12
QR 29 Boeing 787-800 Доха — Эдинбург Qatar Airways 12:40, 06.12
FR 6267 Boeing 737-800 Барселона — Эдинбург Ryanair 12:45, 06.12
BA 1440 Airbus A319 Лондон — Эдинбург British Airways 12:50, 06.12
KL 1281 Embraer 190 Амстердам — Эдинбург KLM 12:50, 06.12
FR 6340 Boeing 737-800 Таллин — Эдинбург Ryanair 12:55, 06.12
U2 15 Airbus А320 Лондон — Эдинбург Easyjet 13:00, 06.12
FR 1018 Boeing 737-800 Будапешт — Эдинбург Ryanair 13:00, 06.12
LM 338 Embraer RJ145 Кардифф — Эдинбург Loganair 13:00, 06.12
LM 344 ATR 42/ATR 72 FR/IT Сторновей — Эдинбург Loganair 13:10, 06.12
LM 324 Embraer RJ145 Саутгемптон — Эдинбург Loganair 13:40, 06.12
U2 807 Airbus A319 Лондон — Эдинбург Easyjet 14:25, 06.12
U2 6954 Airbus А320 Париж — Эдинбург Easyjet 14:50, 06.12
FR 1052 Boeing 737-800 Нант — Эдинбург Ryanair 14:55, 06.12
BA 1448 Airbus A319 Лондон — Эдинбург British Airways 15:20, 06.12
FR 6460 Boeing 737-800 Лиссабон — Эдинбург Ryanair 15:25, 06.12
U2 425 Airbus А320 Бристоль — Эдинбург Easyjet 15:30, 06.12
LM 354 ATR 42/ATR 72 FR/IT Сумбург — Эдинбург Loganair 15:35, 06.12
FR 7922 Boeing 737-800 Гданьск — Эдинбург Ryanair 15:35, 06.12
BA 8716 Embraer 190 Лондон — Эдинбург British Airways 16:00, 06.12
KL 1285 Boeing 737-700 Амстердам — Эдинбург KLM 16:15, 06.12
RC 414 Airbus A320 Фаро — Эдинбург Atlantic Airways Faroe Islands 16:20, 06.12
U2 809 Airbus А320 Лондон — Эдинбург Easyjet 16:20, 06.12
LM 314 ATR 42/ATR 72 FR/IT Каслтаун — Эдинбург Loganair 16:40, 06.12
FR 6622 Boeing 737-800 Тенерифе — Эдинбург Ryanair 16:45, 06.12
U2 427 Airbus A319 Бристоль — Эдинбург Easyjet 16:45, 06.12
BA 1446 Airbus A319 Лондон — Эдинбург British Airways 17:00, 06.12
FR 1077 Boeing 737-800 Гамбург — Эдинбург Ryanair 17:10, 06.12
FR 2321 Boeing 737-800 Биллунн — Эдинбург Ryanair 17:15, 06.12
FR 814 Boeing 737-800 Дублин — Эдинбург Ryanair 17:20, 06.12
LH 964 Airbus A319 Франкфурт-на-Майне — Эдинбург Lufthansa 17:25, 06.12
LM 326 Embraer RJ145 Саутгемптон — Эдинбург Loganair 17:25, 06.12
U2 487 Airbus А320 Белфаст — Эдинбург Easyjet 17:45, 06.12
FR 1053 Boeing 737-800 Прага — Эдинбург Ryanair 18:00, 06.12
LS 736 Boeing 737-800 Фуншал — Эдинбург Jet2.com 18:10, 06.12
BA 1452 Airbus A319 Лондон — Эдинбург British Airways 18:25, 06.12
U2 811 Airbus A319 Лондон — Эдинбург Easyjet 18:30, 06.12
BA 8712 Embraer 190 Лондон — Эдинбург British Airways 18:30, 06.12
U2 17 Airbus А320 Лондон — Эдинбург Easyjet 18:45, 06.12
FR 6606 Boeing 737-800 Порту — Эдинбург Ryanair 19:20, 06.12
EI 256 Airbus А320 Дублин — Эдинбург Aer Lingus 19:25, 06.12
BA 8708 Embraer 190 Лондон — Эдинбург British Airways 19:25, 06.12
LM 358 ATR 42/ATR 72 FR/IT Сумбург — Эдинбург Loganair 19:40, 06.12
U2 6940 Airbus А320 Краков — Эдинбург Easyjet 19:45, 06.12
BA 1438 Airbus A319 Лондон — Эдинбург British Airways 20:00, 06.12
LM 394 ATR 42/ATR 72 FR/IT Керкуолл — Эдинбург Loganair 20:10, 06.12
FR 7893 Boeing 737-800 Гётеборг — Эдинбург Ryanair 20:10, 06.12
BA 8718 Embraer 190 Лондон — Эдинбург British Airways 20:20, 06.12
LS 716 Boeing 737-800 Лас-Пальмас-де-Гран-Канария — Эдинбург Jet2.com 20:40, 06.12
LM 318 Embraer RJ145 Эксетер — Эдинбург Loganair 20:55, 06.12
FR 818 Boeing 737-800 Дублин — Эдинбург Ryanair 21:05, 06.12
BA 8714 Embraer 190 Лондон — Эдинбург British Airways 21:15, 06.12
FR 1808 Boeing 737-800 Эйндховен — Эдинбург Ryanair 21:15, 06.12
LM 328 Embraer RJ145 Саутгемптон — Эдинбург Loganair 21:20, 06.12
U2 6924 Airbus А320 Амстердам — Эдинбург Easyjet 21:30, 06.12
U2 239 Airbus А320 Лондон — Эдинбург Easyjet 21:40, 06.12
KL 1293 Embraer 190 Амстердам — Эдинбург KLM 22:05, 06.12
FR 7353 Boeing 737-800 Брюссель — Эдинбург Ryanair 22:10, 06.12
FR 6625 Boeing 737-800 Краков — Эдинбург Ryanair 22:15, 06.12
AF 1886 Airbus A319 Париж — Эдинбург Air France 22:20, 06.12
U2 504 Airbus A319 Бирмингем — Эдинбург Easyjet 22:25, 06.12
U2 489 Airbus А320 Белфаст — Эдинбург Easyjet 22:25, 06.12
FR 6682 Boeing 737-800 Рим — Эдинбург Ryanair 22:30, 06.12
FR 2790 Boeing 737-800 Бухарест — Эдинбург Ryanair 23:15, 06.12
FR 4520 Boeing 737-800 Варшава — Эдинбург Ryanair 23:25, 06.12
FR 6627 Boeing 737-800 Лансароте — Эдинбург Ryanair 23:25, 06.12
FR 2454 Boeing 737-800 Болонья — Эдинбург Ryanair 23:35, 06.12
FR 188 Boeing 737-800 Мадрид — Эдинбург Ryanair 23:40, 06.12

 

Другие аэропорты этой страны:
Вы можете заказать обратный звонок прямо сейчас!